Time;durP1;ratioP1;P1;durP2;ratioP2;P2;SDS_P1;SDS_P2;PMS_P1;PMS_P2;Temp;Humidity;BMP_temperature;BMP_pressure;BME280_temperature;BME280_humidity;BME280_pressure;Samples;Min_cycle;Max_cycle;Signal;HPM_P1;HPM_P2
2022/12/09 00:01:17;;;;;;;2.72;2.62;;;;;;;6.67;62.01;99386.19;4486163;31;32853;-86
2022/12/09 00:03:46;;;;;;;2.95;2.78;;;;;;;6.81;61.67;99381.31;4472604;31;33245;-86
2022/12/09 00:06:16;;;;;;;1.75;1.65;;;;;;;6.23;63.35;99383.28;4460774;31;34599;-86
2022/12/09 00:08:44;;;;;;;5.70;2.10;;;;;;;6.38;63.20;99380.16;4484096;31;34461;-85
2022/12/09 00:11:12;;;;;;;1.58;1.50;;;;;;;6.20;63.84;99372.88;4465418;31;32481;-85
2022/12/09 00:13:41;;;;;;;0.73;0.73;;;;;;;6.59;62.61;99368.06;4483001;31;33292;-85
2022/12/09 00:16:11;;;;;;;1.13;1.13;;;;;;;6.46;62.83;99376.41;4459745;31;343796;-86
2022/12/09 00:18:41;;;;;;;0.75;0.75;;;;;;;6.47;63.07;99380.75;4461855;31;32800;-86
2022/12/09 00:21:24;;;;;;;1.33;1.23;;;;;;;6.40;63.23;99396.69;4484349;31;33565;-86
2022/12/09 00:23:53;;;;;;;2.42;2.22;;;;;;;6.44;63.31;99401.84;4472344;31;32982;-84
2022/12/09 00:26:23;;;;;;;4.03;2.58;;;;;;;6.31;63.45;99415.34;4484969;31;33691;-84
2022/12/09 00:28:52;;;;;;;2.78;2.58;;;;;;;6.43;63.31;99415.84;4466217;31;34082;-83
2022/12/09 00:31:27;;;;;;;2.30;1.62;;;;;;;6.53;62.91;99402.38;4469652;31;34003;-83
2022/12/09 00:33:59;;;;;;;2.95;2.58;;;;;;;6.36;63.31;99400.34;4470216;31;33492;-83
2022/12/09 00:36:28;;;;;;;4.07;3.28;;;;;;;6.57;62.60;99401.38;4469324;31;33098;-83
2022/12/09 00:38:58;;;;;;;1.62;1.55;;;;;;;6.68;62.39;99406.25;4485278;31;33800;-83
2022/12/09 00:41:29;;;;;;;3.60;1.90;;;;;;;6.18;64.08;99400.94;4476041;31;33908;-84
2022/12/09 00:43:57;;;;;;;3.55;3.30;;;;;;;6.34;63.31;99390.78;4484331;31;33786;-84
2022/12/09 00:46:25;;;;;;;1.65;1.55;;;;;;;6.14;64.53;99389.69;4485907;31;33407;-84
2022/12/09 00:48:53;;;;;;;6.00;4.97;;;;;;;6.16;64.50;99384.37;4483713;31;32025;-84
2022/12/09 00:51:23;;;;;;;4.28;3.65;;;;;;;6.48;63.43;99382.47;4481648;31;33458;-84
2022/12/09 00:53:54;;;;;;;5.45;3.12;;;;;;;6.47;63.54;99386.00;4482094;31;33341;-84
2022/12/09 00:56:27;;;;;;;1.97;1.40;;;;;;;6.60;63.49;99382.06;4469600;31;34179;-84
2022/12/09 00:58:56;;;;;;;2.92;2.65;;;;;;;6.73;63.03;99395.59;4475736;31;33995;-84
2022/12/09 01:01:26;;;;;;;1.35;1.35;;;;;;;6.65;63.34;99406.37;4469343;31;33053;-84
2022/12/09 01:03:55;;;;;;;0.90;0.90;;;;;;;6.62;63.20;99398.59;4473771;31;33307;-84
2022/12/09 01:06:24;;;;;;;4.62;2.17;;;;;;;6.59;63.31;99411.81;4484104;31;34509;-84
2022/12/09 01:08:53;;;;;;;1.40;1.30;;;;;;;6.60;63.45;99413.53;4471746;31;33850;-84
2022/12/09 01:11:24;;;;;;;1.37;1.30;;;;;;;6.53;63.71;99412.03;4471887;31;32738;-84
2022/12/09 01:13:56;;;;;;;2.55;2.35;;;;;;;6.66;63.26;99402.84;4474416;31;33142;-84
2022/12/09 01:16:26;;;;;;;1.77;1.65;;;;;;;6.94;62.53;99397.50;4481808;31;32598;-84
2022/12/09 01:18:58;;;;;;;3.83;2.60;;;;;;;6.97;62.11;99388.63;4486226;31;33570;-84
2022/12/09 01:21:27;;;;;;;2.22;2.10;;;;;;;7.09;61.50;99388.22;4484125;31;34300;-84
2022/12/09 01:23:56;;;;;;;3.17;2.97;;;;;;;6.72;62.57;99391.25;4487396;31;34215;-84
2022/12/09 01:26:25;;;;;;;2.83;2.42;;;;;;;6.94;61.96;99394.88;4475839;31;34301;-84
2022/12/09 01:28:54;;;;;;;2.03;1.85;;;;;;;6.80;62.54;99400.59;4471583;31;33564;-84
2022/12/09 01:31:23;;;;;;;2.95;2.72;;;;;;;6.86;62.49;99400.38;4475955;31;33482;-84
2022/12/09 01:33:54;;;;;;;2.90;1.60;;;;;;;7.06;62.07;99386.53;4475011;31;32635;-86
2022/12/09 01:36:26;;;;;;;2.97;2.78;;;;;;;7.22;61.15;99381.59;4485483;31;32876;-85
2022/12/09 01:38:56;;;;;;;4.80;2.70;;;;;;;7.29;60.98;99376.97;4483287;31;33993;-86
2022/12/09 01:41:24;;;;;;;11.00;3.05;;;;;;;6.80;62.30;99378.75;4485660;31;34250;-86
2022/12/09 01:44:09;;;;;;;0.88;0.88;;;;;;;6.73;62.62;99378.09;4464493;31;32740;-86
2022/12/09 01:46:40;;;;;;;4.30;2.70;;;;;;;6.61;63.35;99374.13;4476729;31;32591;-86
2022/12/09 01:49:13;;;;;;;4.43;2.97;;;;;;;6.60;63.59;99382.91;4485558;31;33733;-86
2022/12/09 01:51:44;;;;;;;3.12;2.92;;;;;;;6.58;63.91;99389.13;4472662;31;33838;-86
2022/12/09 01:54:14;;;;;;;2.92;2.78;;;;;;;6.61;63.52;99381.16;4472724;31;32038;-85
2022/12/09 01:56:43;;;;;;;2.83;2.67;;;;;;;6.88;62.81;99377.56;4474789;31;32371;-86
2022/12/09 01:59:13;;;;;;;4.28;2.28;;;;;;;6.59;63.35;99391.66;4472990;31;33384;-86
2022/12/09 02:01:43;;;;;;;2.10;2.00;;;;;;;6.64;63.19;99388.91;4477787;31;33303;-86
2022/12/09 02:04:12;;;;;;;2.40;2.22;;;;;;;6.72;63.15;99386.88;4482561;31;33632;-86
2022/12/09 02:06:41;;;;;;;7.47;3.75;;;;;;;6.81;62.92;99375.19;4480399;31;32919;-86
2022/12/09 02:09:09;;;;;;;2.17;2.08;;;;;;;6.83;62.65;99384.72;4456372;31;35436;-86
2022/12/09 02:11:47;;;;;;;1.73;1.62;;;;;;;7.05;61.72;99378.72;4487043;31;34788;-86
2022/12/09 02:14:30;;;;;;;2.72;2.30;;;;;;;7.11;61.54;99371.47;4462750;31;32532;-86
2022/12/09 02:17:05;;;;;;;0.93;0.90;;;;;;;6.93;61.87;99361.63;4481945;31;33687;-87
2022/12/09 02:20:00;;;;;;;4.95;2.12;;;;;;;6.78;62.69;99360.41;4473225;31;33360;-86
2022/12/09 02:22:37;;;;;;;2.30;2.20;;;;;;;6.82;62.77;99358.53;4492264;31;32743;-86
2022/12/09 02:25:22;;;;;;;1.02;1.02;;;;;;;6.73;62.94;99361.50;4473304;31;32045;-87
2022/12/09 02:28:13;;;;;;;4.32;3.97;;;;;;;6.43;64.09;99366.88;4480678;31;33867;-86
2022/12/09 02:31:07;;;;;;;2.20;2.10;;;;;;;6.47;64.30;99371.13;4483484;31;33907;-86
2022/12/09 02:34:01;;;;;;;0.95;0.93;;;;;;;6.32;64.57;99356.75;4480992;31;32659;-85
2022/12/09 02:36:37;;;;;;;1.48;1.45;;;;;;;5.91;65.77;99371.16;4486268;31;32744;-85
2022/12/09 02:39:05;;;;;;;2.03;1.85;;;;;;;6.46;64.39;99366.78;4484817;31;32343;-85
2022/12/09 02:41:34;;;;;;;3.83;3.53;;;;;;;6.26;64.93;99354.31;4478895;31;34737;-85
2022/12/09 02:44:14;;;;;;;7.22;4.60;;;;;;;6.21;65.50;99353.63;4463501;31;34277;-85
2022/12/09 02:46:43;;;;;;;4.15;3.87;;;;;;;6.36;65.13;99354.88;4468527;31;33217;-85
2022/12/09 02:49:13;;;;;;;1.77;1.67;;;;;;;6.49;64.80;99357.94;4476359;31;32891;-85
2022/12/09 02:51:42;;;;;;;2.00;1.48;;;;;;;6.89;63.03;99353.03;4472345;31;34226;-85
2022/12/09 02:54:14;;;;;;;3.53;3.35;;;;;;;6.79;63.40;99345.53;4473151;31;34440;-85
2022/12/09 02:56:49;;;;;;;3.25;2.40;;;;;;;7.03;62.51;99343.81;4471847;31;33374;-85
2022/12/09 02:59:17;;;;;;;3.22;2.97;;;;;;;6.68;63.60;99343.28;4475374;31;33470;-85
2022/12/09 03:02:24;;;;;;;4.55;3.75;;;;;;;6.63;63.65;99346.06;4487509;31;33903;-85
2022/12/09 03:05:18;;;;;;;1.92;1.83;;;;;;;6.50;64.20;99351.78;4473724;31;33713;-86
2022/12/09 03:07:53;;;;;;;2.03;1.92;;;;;;;6.68;64.06;99343.28;4473992;31;32520;-86
2022/12/09 03:10:30;;;;;;;3.90;3.33;;;;;;;6.71;63.77;99340.56;4482777;31;32973;-84
2022/12/09 03:13:07;;;;;;;2.30;2.20;;;;;;;6.53;64.46;99341.19;4486704;31;34415;-84
2022/12/09 03:15:36;;;;;;;1.77;1.67;;;;;;;6.50;64.62;99342.16;4477980;31;34257;-84
2022/12/09 03:18:08;;;;;;;1.65;1.55;;;;;;;6.45;64.99;99361.56;4470047;31;32671;-84
2022/12/09 03:20:40;;;;;;;2.15;1.98;;;;;;;6.56;64.80;99362.09;4483765;31;33754;-85
2022/12/09 03:23:11;;;;;;;1.15;1.12;;;;;;;6.45;65.21;99367.69;4458567;32;33180;-85
2022/12/09 03:25:44;;;;;;;2.12;2.03;;;;;;;6.62;64.67;99359.25;4490138;31;34892;-85
2022/12/09 03:28:13;;;;;;;;;;;;;;;6.92;63.94;99362.56;4472012;31;33750;-85
2022/12/09 03:30:43;;;;;;;2.20;2.08;;;;;;;6.76;64.14;99361.37;4474178;31;33792;-86
2022/12/09 03:33:13;;;;;;;14.30;3.35;;;;;;;6.82;64.24;99356.78;4472738;31;33873;-86
2022/12/09 03:35:45;;;;;;;3.75;2.75;;;;;;;6.84;64.19;99359.38;4467441;31;33422;-85
2022/12/09 03:38:15;;;;;;;3.53;3.17;;;;;;;7.03;63.33;99338.56;4486952;31;33367;-86
2022/12/09 03:40:45;;;;;;;2.30;1.92;;;;;;;6.75;64.10;99344.78;4472027;31;34073;-85
2022/12/09 03:43:27;;;;;;;2.53;2.40;;;;;;;6.57;65.52;99340.19;4486328;31;33694;-85
2022/12/09 03:45:56;;;;;;;3.20;2.92;;;;;;;6.60;65.14;99340.09;4472760;31;33783;-86
2022/12/09 03:48:24;;;;;;;3.22;3.03;;;;;;;6.67;65.24;99344.19;4466636;31;33189;-84
2022/12/09 03:51:04;;;;;;;3.17;2.75;;;;;;;6.82;64.65;99348.91;4471824;31;33657;-85
2022/12/09 03:53:38;;;;;;;6.57;4.12;;;;;;;6.78;65.00;99349.91;4484694;31;34517;-85
2022/12/09 03:56:13;;;;;;;4.75;3.28;;;;;;;6.84;64.62;99347.09;4469389;31;33251;-84
2022/12/09 03:58:42;;;;;;;1.20;1.20;;;;;;;6.68;65.38;99345.91;4473418;31;32820;-85
2022/12/09 04:01:11;;;;;;;3.95;3.65;;;;;;;6.98;64.37;99343.09;4471903;31;34271;-84
2022/12/09 04:03:39;;;;;;;1.08;0.95;;;;;;;7.19;63.56;99329.19;4471532;31;33275;-84
2022/12/09 04:06:08;;;;;;;1.42;1.37;;;;;;;6.99;64.23;99331.72;4472125;31;33195;-84
2022/12/09 04:08:36;;;;;;;8.07;5.28;;;;;;;6.79;64.89;99335.03;4472488;31;31833;-84
2022/12/09 04:11:04;;;;;;;2.65;2.00;;;;;;;6.60;65.60;99332.22;4471541;31;32664;-84
2022/12/09 04:13:33;;;;;;;2.97;1.80;;;;;;;6.40;66.47;99344.22;4471076;31;33700;-84
2022/12/09 04:16:02;;;;;;;3.12;2.87;;;;;;;6.40;67.09;99333.75;4492686;31;34239;-84
2022/12/09 04:18:30;;;;;;;4.15;2.30;;;;;;;6.56;66.30;99323.59;4484708;31;33388;-84
2022/12/09 04:21:01;;;;;;;1.40;1.30;;;;;;;6.40;66.49;99333.75;4459814;31;33064;-84
2022/12/09 04:23:31;;;;;;;2.77;2.30;;;;;;;6.40;66.54;99328.50;4485499;31;33842;-84
2022/12/09 04:26:05;;;;;;;1.87;1.77;;;;;;;6.07;67.93;99324.38;4460549;31;33788;-86
2022/12/09 04:28:34;;;;;;;2.20;2.10;;;;;;;6.18;67.97;99326.69;4462205;31;33221;-85
2022/12/09 04:31:02;;;;;;;4.85;3.22;;;;;;;6.01;68.51;99330.69;4463150;31;33104;-84
2022/12/09 04:33:31;;;;;;;1.02;1.02;;;;;;;6.20;68.12;99323.06;4465109;31;33934;-84
2022/12/09 04:36:07;;;;;;;2.35;2.22;;;;;;;6.48;67.30;99327.38;4451876;31;33228;-84
2022/12/09 04:38:35;;;;;;;2.03;1.85;;;;;;;6.51;67.17;99322.06;4464974;31;34100;-84
2022/12/09 04:41:05;;;;;;;2.47;2.28;;;;;;;6.61;66.92;99311.19;4476252;31;33222;-84
2022/12/09 04:43:34;;;;;;;5.07;4.60;;;;;;;6.62;67.07;99317.28;4456701;32;33052;-84
2022/12/09 04:46:04;;;;;;;3.62;2.30;;;;;;;6.77;66.42;99314.09;4470704;31;34639;-84
2022/12/09 04:48:33;;;;;;;6.07;3.87;;;;;;;6.56;66.95;99312.25;4464507;31;32802;-84
2022/12/09 04:51:01;;;;;;;2.35;2.15;;;;;;;6.52;67.24;99315.87;4480410;31;33894;-84
2022/12/09 04:53:30;;;;;;;5.72;3.08;;;;;;;6.37;67.52;99317.28;4456163;32;34431;-84
2022/12/09 04:56:08;;;;;;;3.47;3.15;;;;;;;6.64;66.80;99315.44;4458562;32;33097;-84
2022/12/09 04:58:40;;;;;;;3.03;2.20;;;;;;;6.88;65.88;99319.84;4457511;32;32728;-84
2022/12/09 05:01:13;;;;;;;2.45;2.35;;;;;;;6.65;66.67;99319.78;4456835;32;33709;-85
2022/12/09 05:03:50;;;;;;;5.12;2.03;;;;;;;6.81;66.32;99313.06;4456446;31;33412;-85
2022/12/09 05:06:20;;;;;;;2.37;2.28;;;;;;;6.65;66.90;99311.94;4476342;31;34107;-84
2022/12/09 05:08:51;;;;;;;2.65;2.45;;;;;;;6.79;66.23;99314.91;4466049;31;33817;-85
2022/12/09 05:11:22;;;;;;;2.83;2.67;;;;;;;6.50;67.66;99317.69;4463009;31;33077;-85
2022/12/09 05:13:51;;;;;;;2.95;1.87;;;;;;;6.56;67.20;99317.50;4470086;31;33671;-85
2022/12/09 05:16:21;;;;;;;5.90;3.60;;;;;;;6.74;66.86;99321.22;4453596;31;32684;-85
2022/12/09 05:18:49;;;;;;;5.95;5.25;;;;;;;6.90;66.17;99318.00;4478651;31;32995;-84
2022/12/09 05:21:20;;;;;;;1.42;1.37;;;;;;;6.80;66.91;99316.63;4475224;31;33767;-84
2022/12/09 05:23:49;;;;;;;3.87;3.50;;;;;;;6.81;66.52;99302.59;4491424;31;33890;-84
2022/12/09 05:26:23;;;;;;;2.90;2.78;;;;;;;6.71;66.79;99300.34;4475072;31;34580;-84
2022/12/09 05:28:53;;;;;;;4.07;3.80;;;;;;;6.47;67.86;99302.06;4464236;31;33856;-85
2022/12/09 05:31:23;;;;;;;2.22;1.85;;;;;;;6.54;67.52;99314.06;4465308;31;32342;-85
2022/12/09 05:33:52;;;;;;;3.15;2.87;;;;;;;6.49;67.62;99313.34;4477980;31;33660;-84
2022/12/09 05:36:28;;;;;;;7.80;5.05;;;;;;;6.33;68.95;99316.50;4467253;31;34129;-84
2022/12/09 05:38:58;;;;;;;;;;;;;;;6.74;67.34;99314.22;4479731;31;33578;-85
2022/12/09 05:41:29;;;;;;;2.55;2.30;;;;;;;6.48;68.17;99312.50;4465028;31;34034;-84
2022/12/09 05:43:58;;;;;;;6.95;3.12;;;;;;;6.56;67.82;99309.63;4451042;31;33385;-85
2022/12/09 05:46:28;;;;;;;2.28;2.10;;;;;;;6.32;68.71;99299.06;4477736;31;33834;-84
2022/12/09 05:49:03;;;;;;;4.55;4.00;;;;;;;6.44;68.52;99299.56;4474431;31;33488;-84
2022/12/09 05:51:39;;;;;;;6.65;6.05;;;;;;;6.56;68.28;99301.75;4459216;31;33677;-84
2022/12/09 05:54:09;;;;;;;2.85;2.65;;;;;;;6.70;67.52;99294.25;4472213;31;33668;-84
2022/12/09 05:56:38;;;;;;;2.92;2.40;;;;;;;6.55;68.17;99289.53;4472492;31;33347;-84
2022/12/09 05:59:16;;;;;;;2.95;2.75;;;;;;;6.33;69.07;99295.53;4460584;31;32435;-84
2022/12/09 06:01:45;;;;;;;2.50;2.30;;;;;;;6.53;68.46;99296.59;4469565;31;31699;-85
2022/12/09 06:04:15;;;;;;;2.25;2.10;;;;;;;6.26;69.45;99299.25;4474180;31;35507;-84
2022/12/09 06:06:45;;;;;;;3.92;1.48;;;;;;;6.45;68.95;99289.00;4461079;31;33508;-84
2022/12/09 06:09:14;;;;;;;4.62;3.80;;;;;;;6.45;68.51;99288.16;4447327;31;32592;-85
2022/12/09 06:11:44;;;;;;;1.33;1.33;;;;;;;6.61;68.28;99289.34;4460240;31;34265;-85
2022/12/09 06:14:13;;;;;;;3.92;3.62;;;;;;;6.56;67.97;99288.66;4458271;31;33127;-85
2022/12/09 06:16:41;;;;;;;3.35;1.77;;;;;;;6.65;68.09;99288.31;4443337;32;33614;-86
2022/12/09 06:19:14;;;;;;;5.40;3.05;;;;;;;6.56;68.43;99288.66;4466161;31;31376;-86
2022/12/09 06:21:43;;;;;;;5.30;4.80;;;;;;;6.67;67.88;99294.34;4456664;31;32782;-86
2022/12/09 06:24:11;;;;;;;1.75;1.65;;;;;;;6.08;70.28;99284.19;4455491;31;33514;-86
2022/12/09 06:26:40;;;;;;;1.87;1.77;;;;;;;6.36;69.50;99284.97;4470307;31;33674;-86
2022/12/09 06:29:09;;;;;;;3.37;3.17;;;;;;;6.41;69.07;99293.53;4455986;31;33027;-86
2022/12/09 06:31:38;;;;;;;3.58;3.25;;;;;;;6.12;70.03;99296.25;4451513;31;32794;-86
2022/12/09 06:34:07;;;;;;;10.45;4.72;;;;;;;6.20;69.73;99299.47;4466987;31;31619;-86
2022/12/09 06:36:36;;;;;;;3.87;3.58;;;;;;;6.54;68.92;99293.91;4439169;31;34054;-85
2022/12/09 06:39:07;;;;;;;4.37;2.22;;;;;;;6.40;69.08;99290.94;4457204;31;33702;-85
2022/12/09 06:41:40;;;;;;;1.10;1.10;;;;;;;6.44;69.63;99292.53;4457546;31;33586;-85
2022/12/09 06:44:11;;;;;;;6.07;4.43;;;;;;;6.43;69.48;99289.97;4459697;31;34013;-85
2022/12/09 06:46:48;;;;;;;2.28;2.17;;;;;;;6.67;68.72;99294.34;4470823;31;32645;-88
2022/12/09 06:49:18;;;;;;;2.40;2.15;;;;;;;6.57;69.26;99285.97;4469839;31;33366;-87
2022/12/09 06:51:47;;;;;;;3.12;2.92;;;;;;;6.63;69.04;99285.72;4460307;31;32541;-87
2022/12/09 06:54:16;;;;;;;1.42;1.33;;;;;;;6.58;69.31;99284.19;4477350;31;33876;-88
2022/12/09 06:56:45;;;;;;;2.92;2.67;;;;;;;6.69;69.08;99282.03;4479813;31;34151;-87
2022/12/09 06:59:13;;;;;;;8.43;4.28;;;;;;;6.93;68.50;99278.53;4441065;31;34209;-88
2022/12/09 07:01:44;;;;;;;2.67;2.15;;;;;;;6.49;70.17;99276.63;4446266;31;32325;-86
2022/12/09 07:04:14;;;;;;;4.15;3.12;;;;;;;6.77;69.49;99274.75;4478570;31;33668;-88
2022/12/09 07:06:46;;;;;;;5.18;1.77;;;;;;;6.40;71.41;99269.94;4469986;31;32524;-87
2022/12/09 07:09:18;;;;;;;1.65;1.40;;;;;;;6.39;71.44;99276.09;4466046;31;33601;-87
2022/12/09 07:11:50;;;;;;;4.43;1.37;;;;;;;6.54;71.34;99270.31;4478780;31;33834;-88
2022/12/09 07:14:21;;;;;;;3.40;3.20;;;;;;;6.88;70.20;99267.34;4464253;31;33751;-87
2022/12/09 07:16:52;;;;;;;0.95;0.95;;;;;;;7.23;68.79;99278.28;4466212;31;33997;-87
2022/12/09 07:21:57;;;;;;;1.73;1.40;;;;;;;6.79;70.43;99272.94;4471311;31;33199;-88
2022/12/09 07:24:28;;;;;;;1.10;1.10;;;;;;;6.71;70.95;99277.59;4473626;31;34749;-88
2022/12/09 07:26:59;;;;;;;2.70;2.50;;;;;;;6.67;71.10;99268.97;4471263;31;33528;-88
2022/12/09 07:29:36;;;;;;;2.65;2.45;;;;;;;6.68;71.56;99269.81;4458726;31;32700;-88
2022/12/09 07:32:09;;;;;;;2.67;2.47;;;;;;;6.74;71.57;99268.75;4451731;31;34023;-88
2022/12/09 07:34:44;;;;;;;2.42;2.33;;;;;;;6.69;71.87;99271.53;4472649;31;34007;-88
2022/12/09 07:37:13;;;;;;;5.82;2.78;;;;;;;6.85;71.17;99269.22;4464985;31;34888;-88
2022/12/09 07:42:31;;;;;;;1.65;1.55;;;;;;;6.90;71.23;99260.25;4473003;31;33931;-87
2022/12/09 07:45:03;;;;;;;2.53;2.15;;;;;;;6.50;72.07;99265.22;4439579;31;32221;-88
2022/12/09 07:47:34;;;;;;;2.20;2.08;;;;;;;6.78;71.99;99263.31;4463691;31;33979;-88
2022/12/09 07:50:11;;;;;;;4.10;2.70;;;;;;;7.16;70.51;99263.66;4457365;31;35067;-87
2022/12/09 07:52:41;;;;;;;6.05;3.03;;;;;;;7.37;69.43;99249.72;4469002;31;32666;-88
2022/12/09 07:55:13;;;;;;;;;;;;;;;7.17;69.52;99262.75;4461455;31;33264;-88
2022/12/09 07:57:43;;;;;;;2.37;2.17;;;;;;;7.08;69.96;99257.88;4466132;31;34141;-87
2022/12/09 08:00:16;;;;;;;2.37;2.28;;;;;;;6.55;72.45;99263.31;4461365;31;32232;-88
2022/12/09 08:02:46;;;;;;;2.15;2.05;;;;;;;6.81;71.71;99257.97;4461360;31;33684;-87
2022/12/09 08:05:15;;;;;;;3.67;3.20;;;;;;;6.78;72.08;99255.44;4457331;31;32953;-87
2022/12/09 08:07:52;;;;;;;1.83;1.73;;;;;;;6.35;73.87;99258.78;4473729;31;35690;-87
2022/12/09 08:10:21;;;;;;;5.90;4.72;;;;;;;6.91;72.13;99256.72;4464572;31;33696;-87
2022/12/09 08:12:52;;;;;;;1.90;1.80;;;;;;;7.05;70.98;99250.09;4463352;31;32735;-87
2022/12/09 08:15:21;;;;;;;2.72;1.92;;;;;;;6.86;71.81;99248.16;4463347;31;33892;-87
2022/12/09 08:17:51;;;;;;;1.15;1.15;;;;;;;7.07;71.46;99243.00;4455255;31;33846;-87
2022/12/09 08:20:21;;;;;;;2.40;2.30;;;;;;;7.36;69.75;99232.25;4464634;31;31913;-87
2022/12/09 08:22:59;;;;;;;1.90;1.77;;;;;;;6.97;71.84;99234.62;4466110;31;33409;-87
2022/12/09 08:25:28;;;;;;;2.75;2.55;;;;;;;6.86;72.26;99236.81;4465513;31;33995;-87
2022/12/09 08:27:58;;;;;;;2.70;2.33;;;;;;;6.89;72.26;99241.94;4456056;31;32983;-87
2022/12/09 08:30:27;;;;;;;5.70;2.28;;;;;;;7.25;71.06;99236.19;4456953;31;33409;-87
2022/12/09 08:33:00;;;;;;;1.87;1.77;;;;;;;7.17;71.42;99228.63;4454300;31;33429;-87
2022/12/09 08:35:29;;;;;;;4.47;2.60;;;;;;;6.98;72.40;99231.13;4486769;31;33297;-88
2022/12/09 08:37:59;;;;;;;4.07;3.75;;;;;;;7.25;71.57;99229.16;4470049;31;33858;-87
2022/12/09 08:40:29;;;;;;;4.70;2.55;;;;;;;6.88;72.90;99230.59;4468373;31;33059;-87
2022/12/09 08:43:10;;;;;;;2.65;2.45;;;;;;;7.05;72.18;99221.22;4463832;31;34484;-87
2022/12/09 08:45:40;;;;;;;2.17;1.87;;;;;;;6.92;72.32;99220.81;4457159;31;34066;-87
2022/12/09 08:48:12;;;;;;;3.35;3.10;;;;;;;6.96;72.62;99217.16;4457068;31;32253;-87
2022/12/09 08:50:42;;;;;;;3.47;2.05;;;;;;;6.94;73.09;99219.00;4466961;31;33062;-87
2022/12/09 08:53:10;;;;;;;5.60;2.97;;;;;;;6.62;73.88;99212.34;4458810;31;32288;-87
2022/12/09 08:55:41;;;;;;;1.58;1.55;;;;;;;6.92;72.31;99211.19;4462182;31;34107;-87
2022/12/09 08:58:13;;;;;;;3.42;2.17;;;;;;;7.01;72.50;99209.97;4469682;31;34065;-87
2022/12/09 09:00:44;;;;;;;1.27;1.23;;;;;;;7.38;71.33;99198.88;4456808;31;33362;-87
2022/12/09 09:03:14;;;;;;;2.05;1.92;;;;;;;7.15;71.75;99201.56;4471785;31;33776;-87
2022/12/09 09:05:46;;;;;;;1.50;1.40;;;;;;;7.30;71.18;99190.44;4462823;31;32887;-87
2022/12/09 09:08:16;;;;;;;3.10;2.50;;;;;;;7.06;71.97;99196.66;4471896;31;34113;-87
2022/12/09 09:10:48;;;;;;;3.03;1.83;;;;;;;6.81;73.38;99195.00;4468615;31;33329;-87
2022/12/09 09:13:21;;;;;;;1.67;1.20;;;;;;;6.88;72.85;99191.25;4466917;31;33482;-87
2022/12/09 09:15:54;;;;;;;2.55;1.65;;;;;;;6.79;73.12;99196.84;4447820;31;33885;-87
2022/12/09 09:18:27;;;;;;;1.33;0.62;;;;;;;6.69;73.83;99198.06;4470758;31;33572;-87
2022/12/09 09:20:57;;;;;;;4.22;2.97;;;;;;;7.05;72.53;99182.69;4455169;31;32200;-87
2022/12/09 09:23:27;;;;;;;3.42;3.03;;;;;;;7.27;71.94;99187.09;4456811;31;32355;-87
2022/12/09 09:25:59;;;;;;;2.97;2.78;;;;;;;7.41;71.22;99177.75;4467335;31;33816;-86
2022/12/09 09:28:31;;;;;;;1.87;1.75;;;;;;;7.39;71.16;99174.31;4456525;31;33988;-86
2022/12/09 09:31:01;;;;;;;4.82;2.95;;;;;;;7.48;70.71;99177.50;4444240;31;33789;-86
2022/12/09 09:33:31;;;;;;;1.77;1.67;;;;;;;7.26;71.54;99172.25;4458595;31;33502;-85
2022/12/09 09:36:14;;;;;;;1.65;1.55;;;;;;;7.62;70.04;99164.66;4476247;31;33523;-85
2022/12/09 09:38:52;;;;;;;6.07;3.62;;;;;;;7.43;70.52;99148.78;4473784;31;33836;-85
2022/12/09 09:42:10;;;;;;;2.80;2.60;;;;;;;7.14;71.43;99163.09;4462232;31;32690;-85
2022/12/09 09:44:47;;;;;;;13.75;6.18;;;;;;;6.81;73.10;99155.63;4462439;31;30856;-86
2022/12/09 09:47:42;;;;;;;3.25;3.05;;;;;;;7.05;72.33;99153.81;4457303;31;33364;-86
2022/12/09 09:50:20;;;;;;;3.65;3.28;;;;;;;7.22;71.71;99147.91;4482096;31;33718;-86
2022/12/09 09:52:52;;;;;;;3.85;3.15;;;;;;;7.18;71.57;99151.56;4472914;31;32599;-86
2022/12/09 09:55:46;;;;;;;1.05;1.05;;;;;;;7.18;71.78;99143.69;4466734;31;33806;-86
2022/12/09 09:58:20;;;;;;;1.92;1.77;;;;;;;7.28;70.99;99131.91;4459782;31;33385;-85
2022/12/09 10:01:08;;;;;;;1.48;1.37;;;;;;;7.54;70.40;99129.94;4472547;31;32913;-84
2022/12/09 10:03:58;;;;;;;4.22;1.58;;;;;;;7.59;70.24;99106.97;4462939;31;31883;-85
2022/12/09 10:06:46;;;;;;;1.15;1.15;;;;;;;7.56;70.52;99102.72;4456978;32;33970;-85
2022/12/09 10:09:45;;;;;;;1.62;1.55;;;;;;;7.47;71.00;99107.50;4473558;31;33710;-86
2022/12/09 10:12:49;;;;;;;1.58;1.50;;;;;;;7.62;70.20;99091.06;4470892;31;34478;-85
2022/12/09 10:15:29;;;;;;;2.10;1.67;;;;;;;7.61;70.41;99078.87;4457257;31;34129;-85
2022/12/09 10:18:19;;;;;;;3.40;3.10;;;;;;;7.36;71.13;99069.41;4467749;32;32169;-85
2022/12/09 10:20:48;;;;;;;1.95;1.40;;;;;;;6.90;72.96;99067.81;4461053;32;33844;-85
2022/12/09 10:23:20;;;;;;;2.20;2.05;;;;;;;7.03;72.54;99055.91;4465778;31;34771;-85
2022/12/09 10:25:54;;;;;;;3.95;3.55;;;;;;;6.79;73.61;99047.28;4460801;31;33387;-85
2022/12/09 10:28:29;;;;;;;1.95;1.50;;;;;;;7.25;71.80;99040.09;4443561;31;33136;-85
2022/12/09 10:31:03;;;;;;;1.17;1.17;;;;;;;7.41;71.11;99033.28;4466646;31;34390;-85
2022/12/09 10:33:37;;;;;;;3.15;2.65;;;;;;;7.46;70.78;99029.62;4469011;32;33913;-85
2022/12/09 10:36:27;;;;;;;2.90;2.60;;;;;;;7.06;72.25;99020.78;4459049;31;33332;-85
2022/12/09 10:39:01;;;;;;;1.75;1.67;;;;;;;6.83;73.37;99017.34;4457736;31;32609;-85
2022/12/09 10:44:28;;;;;;;2.62;2.42;;;;;;;6.60;74.24;98993.84;4475530;31;32349;-86
2022/12/09 10:46:59;;;;;;;1.12;1.12;;;;;;;6.67;73.75;98990.88;4452281;31;32732;-85
2022/12/09 10:49:30;;;;;;;3.22;3.03;;;;;;;6.56;74.08;98987.00;4462515;31;34255;-85
2022/12/09 10:52:00;;;;;;;2.67;2.47;;;;;;;6.56;74.43;98977.38;4479690;31;34467;-85
2022/12/09 10:54:33;;;;;;;1.55;1.45;;;;;;;6.89;73.30;98974.28;4477448;31;33465;-86
2022/12/09 10:57:21;;;;;;;0.98;0.98;;;;;;;6.60;74.85;98972.84;4450174;31;32276;-85
2022/12/09 11:00:05;;;;;;;5.47;3.70;;;;;;;6.84;73.42;98974.47;4478388;31;33580;-85
2022/12/09 11:02:52;;;;;;;4.70;3.30;;;;;;;6.89;73.53;98964.63;4467713;31;33632;-85
2022/12/09 11:05:24;;;;;;;1.35;1.25;;;;;;;6.74;74.00;98965.28;4476236;31;32708;-85
2022/12/09 11:07:55;;;;;;;2.45;2.12;;;;;;;6.12;76.16;98966.00;4461299;31;32301;-86
2022/12/09 11:10:30;;;;;;;1.42;1.33;;;;;;;6.03;76.83;98950.63;4475635;31;33750;-85
2022/12/09 11:13:08;;;;;;;1.25;0.75;;;;;;;6.31;76.42;98935.53;4448956;32;34085;-85
2022/12/09 11:15:44;;;;;;;2.37;2.17;;;;;;;6.53;75.48;98934.66;4462267;31;32938;-85
2022/12/09 11:18:27;;;;;;;15.63;2.65;;;;;;;6.47;75.62;98934.91;4476884;31;32069;-85
2022/12/09 11:21:03;;;;;;;0.60;0.60;;;;;;;6.89;74.67;98920.00;4475975;31;33812;-86
2022/12/09 11:23:34;;;;;;;2.28;2.12;;;;;;;6.96;73.82;98922.38;4451768;31;33711;-85
2022/12/09 11:26:22;;;;;;;1.15;1.02;;;;;;;6.83;74.30;98930.75;4451659;31;33919;-88
2022/12/09 11:29:02;;;;;;;2.33;2.20;;;;;;;7.11;73.42;98927.78;4451350;31;34312;-86
2022/12/09 11:31:38;;;;;;;1.57;1.17;;;;;;;6.79;74.62;98925.69;4447153;31;34131;-86
2022/12/09 11:34:16;;;;;;;2.65;1.42;;;;;;;7.08;73.43;98922.69;4463784;31;34483;-85
2022/12/09 11:39:31;;;;;;;2.15;2.00;;;;;;;6.93;73.79;98918.97;4466648;31;32899;-86
2022/12/09 11:42:13;;;;;;;0.73;0.73;;;;;;;7.13;73.30;98917.25;4472474;31;32000;-86
2022/12/09 11:47:39;;;;;;;1.52;1.50;;;;;;;7.00;73.64;98908.19;4462138;32;34782;-86
2022/12/09 11:50:30;;;;;;;1.27;1.17;;;;;;;7.31;73.05;98913.81;4455779;32;33172;-86
2022/12/09 11:53:12;;;;;;;2.20;2.00;;;;;;;7.11;73.84;98908.56;4467548;31;31551;-86
2022/12/09 11:55:49;;;;;;;2.60;2.47;;;;;;;6.87;74.63;98913.97;4469446;31;34000;-86
2022/12/09 11:58:30;;;;;;;1.80;1.58;;;;;;;6.84;74.32;98898.38;4454229;31;34251;-86
2022/12/09 12:01:08;;;;;;;3.33;1.83;;;;;;;7.23;72.61;98896.69;4468181;32;32750;-86
2022/12/09 12:03:51;;;;;;;17.52;2.00;;;;;;;7.14;72.90;98882.19;4467298;31;33633;-86
2022/12/09 12:09:22;;;;;;;1.27;1.17;;;;;;;7.37;72.62;98863.63;4467949;31;32269;-86
2022/12/09 12:12:18;;;;;;;2.05;1.95;;;;;;;7.03;73.86;98871.31;4442114;32;33327;-86
2022/12/09 12:14:47;;;;;;;5.90;2.70;;;;;;;7.01;74.06;98878.41;4482321;31;32840;-86
2022/12/09 12:17:34;;;;;;;3.20;2.92;;;;;;;7.34;72.94;98876.03;4456651;31;33476;-86
2022/12/09 12:20:12;;;;;;;3.30;3.03;;;;;;;7.17;73.39;98874.19;4461769;31;33938;-86
2022/12/09 12:23:14;;;;;;;5.82;2.83;;;;;;;7.01;74.16;98886.28;4460377;31;33260;-85
2022/12/09 12:25:54;;;;;;;0.50;0.50;;;;;;;6.85;74.91;98872.97;4452237;32;33351;-85
2022/12/09 12:28:26;;;;;;;2.92;2.67;;;;;;;6.82;74.89;98849.47;4457144;31;32671;-85